sensor_id;sensor_type;location;lat;lon;timestamp;P1;durP1;ratioP1;P2;durP2;ratioP2
18286;SDS011;9269;50.838;12.094;2022-08-11T00:02:26;9.90;;;6.93;;
18286;SDS011;9269;50.838;12.094;2022-08-11T00:05:03;9.57;;;6.80;;
18286;SDS011;9269;50.838;12.094;2022-08-11T00:07:41;8.13;;;6.40;;
18286;SDS011;9269;50.838;12.094;2022-08-11T00:10:13;6.80;;;6.13;;
18286;SDS011;9269;50.838;12.094;2022-08-11T00:12:46;8.73;;;6.37;;
18286;SDS011;9269;50.838;12.094;2022-08-11T00:15:25;6.90;;;5.90;;
18286;SDS011;9269;50.838;12.094;2022-08-11T00:18:10;6.70;;;6.10;;
18286;SDS011;9269;50.838;12.094;2022-08-11T00:20:42;9.13;;;6.57;;
18286;SDS011;9269;50.838;12.094;2022-08-11T00:23:12;6.47;;;5.77;;
18286;SDS011;9269;50.838;12.094;2022-08-11T00:25:48;6.33;;;5.67;;
18286;SDS011;9269;50.838;12.094;2022-08-11T00:28:22;6.40;;;5.70;;
18286;SDS011;9269;50.838;12.094;2022-08-11T00:30:54;6.77;;;5.10;;
18286;SDS011;9269;50.838;12.094;2022-08-11T00:33:31;5.67;;;5.17;;
18286;SDS011;9269;50.838;12.094;2022-08-11T00:36:13;5.80;;;5.00;;
18286;SDS011;9269;50.838;12.094;2022-08-11T00:38:50;6.90;;;5.13;;
18286;SDS011;9269;50.838;12.094;2022-08-11T00:41:28;5.80;;;5.30;;
18286;SDS011;9269;50.838;12.094;2022-08-11T00:47:12;6.83;;;5.63;;
18286;SDS011;9269;50.838;12.094;2022-08-11T00:49:54;6.37;;;5.87;;
18286;SDS011;9269;50.838;12.094;2022-08-11T00:52:38;7.33;;;6.57;;
18286;SDS011;9269;50.838;12.094;2022-08-11T00:55:38;7.80;;;7.10;;
18286;SDS011;9269;50.838;12.094;2022-08-11T00:58:36;7.47;;;6.77;;
18286;SDS011;9269;50.838;12.094;2022-08-11T01:01:57;10.90;;;7.87;;
18286;SDS011;9269;50.838;12.094;2022-08-11T01:04:43;8.60;;;7.70;;
18286;SDS011;9269;50.838;12.094;2022-08-11T01:11:20;9.70;;;8.27;;
18286;SDS011;9269;50.838;12.094;2022-08-11T01:18:25;9.23;;;7.30;;
18286;SDS011;9269;50.838;12.094;2022-08-11T01:21:40;8.03;;;7.27;;
18286;SDS011;9269;50.838;12.094;2022-08-11T01:35:32;11.83;;;9.10;;
18286;SDS011;9269;50.838;12.094;2022-08-11T01:38:48;11.53;;;10.37;;
18286;SDS011;9269;50.838;12.094;2022-08-11T01:41:57;17.17;;;10.77;;
18286;SDS011;9269;50.838;12.094;2022-08-11T01:45:28;16.87;;;10.83;;
18286;SDS011;9269;50.838;12.094;2022-08-11T01:48:28;14.83;;;10.43;;
18286;SDS011;9269;50.838;12.094;2022-08-11T01:51:34;14.03;;;10.40;;
18286;SDS011;9269;50.838;12.094;2022-08-11T01:54:18;13.53;;;10.30;;
18286;SDS011;9269;50.838;12.094;2022-08-11T01:56:56;12.60;;;9.50;;
18286;SDS011;9269;50.838;12.094;2022-08-11T01:59:38;13.00;;;8.27;;
18286;SDS011;9269;50.838;12.094;2022-08-11T02:02:20;12.43;;;8.30;;
18286;SDS011;9269;50.838;12.094;2022-08-11T02:05:12;9.47;;;8.37;;
18286;SDS011;9269;50.838;12.094;2022-08-11T02:07:53;12.63;;;8.47;;
18286;SDS011;9269;50.838;12.094;2022-08-11T02:10:30;13.67;;;8.70;;
18286;SDS011;9269;50.838;12.094;2022-08-11T02:13:24;11.43;;;7.90;;
18286;SDS011;9269;50.838;12.094;2022-08-11T02:16:08;11.03;;;8.50;;
18286;SDS011;9269;50.838;12.094;2022-08-11T02:18:46;10.17;;;8.20;;
18286;SDS011;9269;50.838;12.094;2022-08-11T02:21:39;9.57;;;7.83;;
18286;SDS011;9269;50.838;12.094;2022-08-11T02:24:33;9.73;;;8.73;;
18286;SDS011;9269;50.838;12.094;2022-08-11T02:27:06;11.33;;;8.70;;
18286;SDS011;9269;50.838;12.094;2022-08-11T02:29:43;12.47;;;9.10;;
18286;SDS011;9269;50.838;12.094;2022-08-11T02:32:19;11.00;;;9.00;;
18286;SDS011;9269;50.838;12.094;2022-08-11T02:35:11;11.63;;;9.50;;
18286;SDS011;9269;50.838;12.094;2022-08-11T02:37:47;10.63;;;9.47;;
18286;SDS011;9269;50.838;12.094;2022-08-11T02:40:26;15.37;;;9.47;;
18286;SDS011;9269;50.838;12.094;2022-08-11T02:43:04;14.13;;;10.07;;
18286;SDS011;9269;50.838;12.094;2022-08-11T02:45:39;15.27;;;10.57;;
18286;SDS011;9269;50.838;12.094;2022-08-11T02:48:17;13.70;;;10.97;;
18286;SDS011;9269;50.838;12.094;2022-08-11T02:51:11;14.20;;;10.03;;
18286;SDS011;9269;50.838;12.094;2022-08-11T02:53:50;12.40;;;10.17;;
18286;SDS011;9269;50.838;12.094;2022-08-11T02:56:33;10.80;;;9.73;;
18286;SDS011;9269;50.838;12.094;2022-08-11T02:59:14;12.23;;;10.30;;
18286;SDS011;9269;50.838;12.094;2022-08-11T03:02:13;10.40;;;9.50;;
18286;SDS011;9269;50.838;12.094;2022-08-11T03:04:54;12.03;;;10.77;;
18286;SDS011;9269;50.838;12.094;2022-08-11T03:07:29;12.97;;;11.00;;
18286;SDS011;9269;50.838;12.094;2022-08-11T03:10:02;12.97;;;11.60;;
18286;SDS011;9269;50.838;12.094;2022-08-11T03:12:40;13.53;;;12.23;;
18286;SDS011;9269;50.838;12.094;2022-08-11T03:15:39;12.07;;;10.93;;
18286;SDS011;9269;50.838;12.094;2022-08-11T03:18:31;13.07;;;11.87;;
18286;SDS011;9269;50.838;12.094;2022-08-11T03:21:08;12.03;;;10.07;;
18286;SDS011;9269;50.838;12.094;2022-08-11T03:23:46;12.10;;;11.00;;
18286;SDS011;9269;50.838;12.094;2022-08-11T03:26:23;9.90;;;8.97;;
18286;SDS011;9269;50.838;12.094;2022-08-11T03:29:00;10.30;;;9.40;;
18286;SDS011;9269;50.838;12.094;2022-08-11T03:31:34;9.10;;;8.10;;
18286;SDS011;9269;50.838;12.094;2022-08-11T03:34:12;9.03;;;8.13;;
18286;SDS011;9269;50.838;12.094;2022-08-11T03:40:03;8.93;;;8.03;;
18286;SDS011;9269;50.838;12.094;2022-08-11T03:42:41;9.17;;;8.23;;
18286;SDS011;9269;50.838;12.094;2022-08-11T03:45:18;8.83;;;8.13;;
18286;SDS011;9269;50.838;12.094;2022-08-11T03:47:56;7.27;;;6.67;;
18286;SDS011;9269;50.838;12.094;2022-08-11T03:50:46;7.57;;;6.87;;
18286;SDS011;9269;50.838;12.094;2022-08-11T03:53:27;8.00;;;7.30;;
18286;SDS011;9269;50.838;12.094;2022-08-11T03:56:12;8.33;;;7.47;;
18286;SDS011;9269;50.838;12.094;2022-08-11T03:59:12;9.03;;;7.07;;
18286;SDS011;9269;50.838;12.094;2022-08-11T04:02:07;8.80;;;7.90;;
18286;SDS011;9269;50.838;12.094;2022-08-11T04:04:53;7.83;;;7.13;;
18286;SDS011;9269;50.838;12.094;2022-08-11T04:08:10;7.50;;;6.87;;
18286;SDS011;9269;50.838;12.094;2022-08-11T04:20:42;7.37;;;6.67;;
18286;SDS011;9269;50.838;12.094;2022-08-11T04:23:23;7.10;;;6.40;;
18286;SDS011;9269;50.838;12.094;2022-08-11T04:26:32;9.83;;;6.63;;
18286;SDS011;9269;50.838;12.094;2022-08-11T04:35:48;7.27;;;6.57;;
18286;SDS011;9269;50.838;12.094;2022-08-11T04:38:33;7.13;;;6.27;;
18286;SDS011;9269;50.838;12.094;2022-08-11T04:41:19;6.67;;;6.07;;
18286;SDS011;9269;50.838;12.094;2022-08-11T04:47:52;7.20;;;6.50;;
18286;SDS011;9269;50.838;12.094;2022-08-11T04:51:00;7.87;;;6.47;;
18286;SDS011;9269;50.838;12.094;2022-08-11T04:54:07;6.80;;;6.20;;
18286;SDS011;9269;50.838;12.094;2022-08-11T04:57:08;7.63;;;6.40;;
18286;SDS011;9269;50.838;12.094;2022-08-11T05:00:04;6.97;;;6.37;;
18286;SDS011;9269;50.838;12.094;2022-08-11T05:09:12;7.07;;;6.27;;
18286;SDS011;9269;50.838;12.094;2022-08-11T05:14:58;7.13;;;6.50;;
18286;SDS011;9269;50.838;12.094;2022-08-11T05:17:48;7.87;;;7.17;;
18286;SDS011;9269;50.838;12.094;2022-08-11T05:20:41;7.57;;;6.80;;
18286;SDS011;9269;50.838;12.094;2022-08-11T05:23:31;7.07;;;6.47;;
18286;SDS011;9269;50.838;12.094;2022-08-11T05:26:21;8.20;;;7.47;;
18286;SDS011;9269;50.838;12.094;2022-08-11T05:29:25;8.13;;;7.43;;
18286;SDS011;9269;50.838;12.094;2022-08-11T05:32:20;7.47;;;6.83;;
18286;SDS011;9269;50.838;12.094;2022-08-11T05:35:08;7.90;;;6.87;;
18286;SDS011;9269;50.838;12.094;2022-08-11T05:37:58;6.93;;;6.43;;
18286;SDS011;9269;50.838;12.094;2022-08-11T05:40:46;7.20;;;6.50;;
18286;SDS011;9269;50.838;12.094;2022-08-11T05:43:39;7.20;;;6.50;;
18286;SDS011;9269;50.838;12.094;2022-08-11T05:46:47;7.13;;;6.53;;
18286;SDS011;9269;50.838;12.094;2022-08-11T05:49:34;6.53;;;5.93;;
18286;SDS011;9269;50.838;12.094;2022-08-11T05:52:24;8.47;;;7.17;;
18286;SDS011;9269;50.838;12.094;2022-08-11T05:55:15;7.27;;;6.57;;
18286;SDS011;9269;50.838;12.094;2022-08-11T05:58:18;7.80;;;7.00;;
18286;SDS011;9269;50.838;12.094;2022-08-11T06:00:48;7.33;;;6.63;;
18286;SDS011;9269;50.838;12.094;2022-08-11T06:03:19;7.27;;;6.67;;
18286;SDS011;9269;50.838;12.094;2022-08-11T06:05:55;8.63;;;6.13;;
18286;SDS011;9269;50.838;12.094;2022-08-11T06:08:29;10.00;;;6.20;;
18286;SDS011;9269;50.838;12.094;2022-08-11T06:11:03;7.00;;;6.27;;
18286;SDS011;9269;50.838;12.094;2022-08-11T06:13:32;7.53;;;6.77;;
18286;SDS011;9269;50.838;12.094;2022-08-11T06:16:03;7.97;;;7.30;;
18286;SDS011;9269;50.838;12.094;2022-08-11T06:18:32;7.00;;;5.80;;
18286;SDS011;9269;50.838;12.094;2022-08-11T06:21:07;7.40;;;6.30;;
18286;SDS011;9269;50.838;12.094;2022-08-11T06:23:36;6.80;;;6.03;;
18286;SDS011;9269;50.838;12.094;2022-08-11T06:26:07;6.47;;;5.87;;
18286;SDS011;9269;50.838;12.094;2022-08-11T06:28:36;6.50;;;5.40;;
18286;SDS011;9269;50.838;12.094;2022-08-11T06:31:11;5.93;;;5.33;;
18286;SDS011;9269;50.838;12.094;2022-08-11T06:33:46;7.10;;;6.50;;
18286;SDS011;9269;50.838;12.094;2022-08-11T06:36:30;8.30;;;6.90;;
18286;SDS011;9269;50.838;12.094;2022-08-11T06:39:05;12.23;;;6.73;;
18286;SDS011;9269;50.838;12.094;2022-08-11T06:41:48;7.90;;;6.63;;
18286;SDS011;9269;50.838;12.094;2022-08-11T06:44:22;7.87;;;5.83;;
18286;SDS011;9269;50.838;12.094;2022-08-11T06:46:59;6.97;;;5.90;;
18286;SDS011;9269;50.838;12.094;2022-08-11T06:49:34;6.30;;;5.47;;
18286;SDS011;9269;50.838;12.094;2022-08-11T06:52:28;7.00;;;5.60;;
18286;SDS011;9269;50.838;12.094;2022-08-11T06:55:04;6.40;;;5.80;;
18286;SDS011;9269;50.838;12.094;2022-08-11T06:57:55;7.80;;;6.43;;
18286;SDS011;9269;50.838;12.094;2022-08-11T07:00:41;7.50;;;5.90;;
18286;SDS011;9269;50.838;12.094;2022-08-11T07:03:15;8.63;;;7.03;;
18286;SDS011;9269;50.838;12.094;2022-08-11T07:05:46;8.10;;;6.70;;
18286;SDS011;9269;50.838;12.094;2022-08-11T07:08:24;12.47;;;7.03;;
18286;SDS011;9269;50.838;12.094;2022-08-11T07:14:34;7.13;;;5.90;;
18286;SDS011;9269;50.838;12.094;2022-08-11T07:17:26;8.30;;;5.97;;
18286;SDS011;9269;50.838;12.094;2022-08-11T07:19:58;6.33;;;5.00;;
18286;SDS011;9269;50.838;12.094;2022-08-11T07:22:48;6.43;;;5.67;;
18286;SDS011;9269;50.838;12.094;2022-08-11T07:25:39;6.57;;;5.57;;
18286;SDS011;9269;50.838;12.094;2022-08-11T07:28:28;6.17;;;5.07;;
18286;SDS011;9269;50.838;12.094;2022-08-11T07:31:16;6.17;;;4.80;;
18286;SDS011;9269;50.838;12.094;2022-08-11T07:33:51;4.83;;;4.43;;
18286;SDS011;9269;50.838;12.094;2022-08-11T07:36:38;4.73;;;4.33;;
18286;SDS011;9269;50.838;12.094;2022-08-11T07:39:09;6.07;;;4.40;;
18286;SDS011;9269;50.838;12.094;2022-08-11T07:41:42;4.63;;;4.13;;
18286;SDS011;9269;50.838;12.094;2022-08-11T07:44:10;4.57;;;4.17;;
18286;SDS011;9269;50.838;12.094;2022-08-11T07:46:43;4.77;;;4.30;;
18286;SDS011;9269;50.838;12.094;2022-08-11T07:49:31;5.07;;;4.30;;
18286;SDS011;9269;50.838;12.094;2022-08-11T07:52:20;4.47;;;4.07;;
18286;SDS011;9269;50.838;12.094;2022-08-11T07:54:59;4.53;;;4.13;;
18286;SDS011;9269;50.838;12.094;2022-08-11T07:57:29;6.73;;;4.00;;
18286;SDS011;9269;50.838;12.094;2022-08-11T08:00:37;4.97;;;4.40;;
18286;SDS011;9269;50.838;12.094;2022-08-11T08:03:28;6.10;;;4.40;;
18286;SDS011;9269;50.838;12.094;2022-08-11T08:06:20;4.67;;;4.20;;
18286;SDS011;9269;50.838;12.094;2022-08-11T08:09:08;4.13;;;3.83;;
18286;SDS011;9269;50.838;12.094;2022-08-11T08:11:56;4.40;;;4.00;;
18286;SDS011;9269;50.838;12.094;2022-08-11T08:14:45;4.67;;;3.97;;
18286;SDS011;9269;50.838;12.094;2022-08-11T08:17:31;4.63;;;3.83;;
18286;SDS011;9269;50.838;12.094;2022-08-11T08:20:44;3.70;;;3.40;;
18286;SDS011;9269;50.838;12.094;2022-08-11T08:23:15;4.20;;;3.80;;
18286;SDS011;9269;50.838;12.094;2022-08-11T08:26:01;4.60;;;3.90;;
18286;SDS011;9269;50.838;12.094;2022-08-11T08:28:52;3.97;;;3.67;;
18286;SDS011;9269;50.838;12.094;2022-08-11T08:31:42;4.07;;;3.73;;
18286;SDS011;9269;50.838;12.094;2022-08-11T08:34:11;5.30;;;4.03;;
18286;SDS011;9269;50.838;12.094;2022-08-11T08:36:41;6.33;;;3.93;;
18286;SDS011;9269;50.838;12.094;2022-08-11T08:39:11;4.17;;;3.87;;
18286;SDS011;9269;50.838;12.094;2022-08-11T08:41:43;3.83;;;3.53;;
18286;SDS011;9269;50.838;12.094;2022-08-11T08:44:12;3.87;;;3.47;;
18286;SDS011;9269;50.838;12.094;2022-08-11T08:47:02;4.07;;;3.50;;
18286;SDS011;9269;50.838;12.094;2022-08-11T08:49:33;3.70;;;3.40;;
18286;SDS011;9269;50.838;12.094;2022-08-11T08:52:06;3.60;;;3.30;;
18286;SDS011;9269;50.838;12.094;2022-08-11T08:54:57;3.20;;;2.90;;
18286;SDS011;9269;50.838;12.094;2022-08-11T08:57:32;3.63;;;3.33;;
18286;SDS011;9269;50.838;12.094;2022-08-11T09:00:05;3.03;;;2.73;;
18286;SDS011;9269;50.838;12.094;2022-08-11T09:02:40;3.87;;;3.00;;
18286;SDS011;9269;50.838;12.094;2022-08-11T09:05:08;3.50;;;3.00;;
18286;SDS011;9269;50.838;12.094;2022-08-11T09:07:37;4.37;;;2.90;;
18286;SDS011;9269;50.838;12.094;2022-08-11T09:10:07;4.17;;;2.80;;
18286;SDS011;9269;50.838;12.094;2022-08-11T09:12:39;3.30;;;3.00;;
18286;SDS011;9269;50.838;12.094;2022-08-11T09:15:10;4.87;;;2.73;;
18286;SDS011;9269;50.838;12.094;2022-08-11T09:17:42;3.53;;;3.10;;
18286;SDS011;9269;50.838;12.094;2022-08-11T09:20:12;3.43;;;3.13;;
18286;SDS011;9269;50.838;12.094;2022-08-11T09:22:44;3.37;;;3.07;;
18286;SDS011;9269;50.838;12.094;2022-08-11T09:25:54;4.23;;;3.00;;
18286;SDS011;9269;50.838;12.094;2022-08-11T09:28:43;3.10;;;2.80;;
18286;SDS011;9269;50.838;12.094;2022-08-11T09:31:13;3.53;;;3.10;;
18286;SDS011;9269;50.838;12.094;2022-08-11T09:33:42;3.53;;;2.77;;
18286;SDS011;9269;50.838;12.094;2022-08-11T09:36:11;3.17;;;2.83;;
18286;SDS011;9269;50.838;12.094;2022-08-11T09:38:58;3.27;;;2.97;;
18286;SDS011;9269;50.838;12.094;2022-08-11T09:41:45;3.53;;;3.03;;
18286;SDS011;9269;50.838;12.094;2022-08-11T09:44:30;3.27;;;3.00;;
18286;SDS011;9269;50.838;12.094;2022-08-11T09:47:16;4.63;;;2.80;;
18286;SDS011;9269;50.838;12.094;2022-08-11T09:49:49;4.57;;;3.07;;
18286;SDS011;9269;50.838;12.094;2022-08-11T09:52:20;3.93;;;2.77;;
18286;SDS011;9269;50.838;12.094;2022-08-11T09:54:50;8.17;;;3.23;;
18286;SDS011;9269;50.838;12.094;2022-08-11T09:57:20;3.47;;;3.10;;
18286;SDS011;9269;50.838;12.094;2022-08-11T10:00:09;3.03;;;2.73;;
18286;SDS011;9269;50.838;12.094;2022-08-11T10:02:41;3.23;;;2.93;;
18286;SDS011;9269;50.838;12.094;2022-08-11T10:05:13;3.20;;;2.77;;
18286;SDS011;9269;50.838;12.094;2022-08-11T10:08:01;3.90;;;3.07;;
18286;SDS011;9269;50.838;12.094;2022-08-11T10:10:33;4.17;;;3.43;;
18286;SDS011;9269;50.838;12.094;2022-08-11T10:13:04;3.80;;;2.90;;
18286;SDS011;9269;50.838;12.094;2022-08-11T10:15:57;3.30;;;3.03;;
18286;SDS011;9269;50.838;12.094;2022-08-11T10:18:42;4.53;;;3.40;;
18286;SDS011;9269;50.838;12.094;2022-08-11T10:21:23;3.33;;;2.97;;
18286;SDS011;9269;50.838;12.094;2022-08-11T10:23:55;3.97;;;3.10;;
18286;SDS011;9269;50.838;12.094;2022-08-11T10:26:43;3.83;;;2.97;;
18286;SDS011;9269;50.838;12.094;2022-08-11T10:29:20;4.60;;;3.17;;
18286;SDS011;9269;50.838;12.094;2022-08-11T10:32:18;4.30;;;3.20;;
18286;SDS011;9269;50.838;12.094;2022-08-11T10:35:23;4.27;;;2.77;;
18286;SDS011;9269;50.838;12.094;2022-08-11T10:37:52;3.00;;;2.80;;
18286;SDS011;9269;50.838;12.094;2022-08-11T10:40:34;3.03;;;2.83;;
18286;SDS011;9269;50.838;12.094;2022-08-11T10:43:04;2.87;;;2.60;;
18286;SDS011;9269;50.838;12.094;2022-08-11T10:45:39;4.50;;;2.80;;
18286;SDS011;9269;50.838;12.094;2022-08-11T10:48:30;3.43;;;2.70;;
18286;SDS011;9269;50.838;12.094;2022-08-11T10:51:04;3.90;;;2.90;;
18286;SDS011;9269;50.838;12.094;2022-08-11T10:54:03;5.40;;;2.80;;
18286;SDS011;9269;50.838;12.094;2022-08-11T10:56:50;3.30;;;3.00;;
18286;SDS011;9269;50.838;12.094;2022-08-11T10:59:38;3.23;;;2.80;;
18286;SDS011;9269;50.838;12.094;2022-08-11T11:02:09;3.63;;;2.93;;
18286;SDS011;9269;50.838;12.094;2022-08-11T11:04:56;3.60;;;2.90;;
18286;SDS011;9269;50.838;12.094;2022-08-11T11:07:35;6.43;;;3.47;;
18286;SDS011;9269;50.838;12.094;2022-08-11T11:10:10;3.17;;;2.90;;
18286;SDS011;9269;50.838;12.094;2022-08-11T11:12:39;3.40;;;3.10;;
18286;SDS011;9269;50.838;12.094;2022-08-11T11:15:29;3.90;;;3.13;;
18286;SDS011;9269;50.838;12.094;2022-08-11T11:18:20;3.00;;;2.80;;
18286;SDS011;9269;50.838;12.094;2022-08-11T11:20:52;4.73;;;3.00;;
18286;SDS011;9269;50.838;12.094;2022-08-11T11:23:25;5.17;;;2.80;;
18286;SDS011;9269;50.838;12.094;2022-08-11T11:25:58;2.73;;;2.53;;
18286;SDS011;9269;50.838;12.094;2022-08-11T11:28:49;3.03;;;2.83;;
18286;SDS011;9269;50.838;12.094;2022-08-11T11:31:44;3.33;;;2.60;;
18286;SDS011;9269;50.838;12.094;2022-08-11T11:34:32;4.37;;;2.60;;
18286;SDS011;9269;50.838;12.094;2022-08-11T11:37:21;3.43;;;2.60;;
18286;SDS011;9269;50.838;12.094;2022-08-11T11:39:50;2.90;;;2.60;;
18286;SDS011;9269;50.838;12.094;2022-08-11T11:42:20;3.03;;;2.70;;
18286;SDS011;9269;50.838;12.094;2022-08-11T11:44:49;2.87;;;2.60;;
18286;SDS011;9269;50.838;12.094;2022-08-11T11:47:22;4.37;;;2.87;;
18286;SDS011;9269;50.838;12.094;2022-08-11T11:49:51;2.93;;;2.73;;
18286;SDS011;9269;50.838;12.094;2022-08-11T11:52:21;5.50;;;2.80;;
18286;SDS011;9269;50.838;12.094;2022-08-11T11:54:51;3.57;;;3.07;;
18286;SDS011;9269;50.838;12.094;2022-08-11T11:57:22;3.00;;;2.80;;
18286;SDS011;9269;50.838;12.094;2022-08-11T12:00:28;2.70;;;2.40;;
18286;SDS011;9269;50.838;12.094;2022-08-11T12:03:15;4.30;;;2.97;;
18286;SDS011;9269;50.838;12.094;2022-08-11T12:05:44;2.70;;;2.50;;
18286;SDS011;9269;50.838;12.094;2022-08-11T12:08:14;4.97;;;2.70;;
18286;SDS011;9269;50.838;12.094;2022-08-11T12:10:45;2.83;;;2.53;;
18286;SDS011;9269;50.838;12.094;2022-08-11T12:13:16;3.40;;;2.30;;
18286;SDS011;9269;50.838;12.094;2022-08-11T12:16:06;3.00;;;2.80;;
18286;SDS011;9269;50.838;12.094;2022-08-11T12:18:57;3.07;;;2.67;;
18286;SDS011;9269;50.838;12.094;2022-08-11T12:21:28;4.17;;;2.60;;
18286;SDS011;9269;50.838;12.094;2022-08-11T12:23:59;2.93;;;2.63;;
18286;SDS011;9269;50.838;12.094;2022-08-11T12:26:47;4.53;;;2.70;;
18286;SDS011;9269;50.838;12.094;2022-08-11T12:29:43;3.57;;;2.90;;
18286;SDS011;9269;50.838;12.094;2022-08-11T12:32:21;3.13;;;2.77;;
18286;SDS011;9269;50.838;12.094;2022-08-11T12:34:51;2.97;;;2.60;;
18286;SDS011;9269;50.838;12.094;2022-08-11T12:37:23;3.13;;;2.60;;
18286;SDS011;9269;50.838;12.094;2022-08-11T12:39:59;2.73;;;2.53;;
18286;SDS011;9269;50.838;12.094;2022-08-11T12:43:09;3.47;;;2.63;;
18286;SDS011;9269;50.838;12.094;2022-08-11T12:46:06;3.07;;;2.77;;
18286;SDS011;9269;50.838;12.094;2022-08-11T12:48:40;3.60;;;2.77;;
18286;SDS011;9269;50.838;12.094;2022-08-11T12:51:31;3.50;;;2.60;;
18286;SDS011;9269;50.838;12.094;2022-08-11T12:54:40;5.00;;;2.97;;
18286;SDS011;9269;50.838;12.094;2022-08-11T12:57:19;4.10;;;2.60;;
18286;SDS011;9269;50.838;12.094;2022-08-11T13:00:17;2.67;;;2.37;;
18286;SDS011;9269;50.838;12.094;2022-08-11T13:03:05;3.50;;;2.67;;
18286;SDS011;9269;50.838;12.094;2022-08-11T13:05:54;2.80;;;2.60;;
18286;SDS011;9269;50.838;12.094;2022-08-11T13:08:24;3.93;;;2.53;;
18286;SDS011;9269;50.838;12.094;2022-08-11T13:10:56;3.70;;;2.67;;
18286;SDS011;9269;50.838;12.094;2022-08-11T13:13:45;3.67;;;2.80;;
18286;SDS011;9269;50.838;12.094;2022-08-11T13:16:22;3.70;;;2.90;;
18286;SDS011;9269;50.838;12.094;2022-08-11T13:18:55;4.57;;;2.90;;
18286;SDS011;9269;50.838;12.094;2022-08-11T13:21:27;4.13;;;2.73;;
18286;SDS011;9269;50.838;12.094;2022-08-11T13:23:57;3.23;;;2.93;;
18286;SDS011;9269;50.838;12.094;2022-08-11T13:26:30;5.07;;;2.93;;
18286;SDS011;9269;50.838;12.094;2022-08-11T13:29:16;3.03;;;2.73;;
18286;SDS011;9269;50.838;12.094;2022-08-11T13:31:46;3.20;;;2.77;;
18286;SDS011;9269;50.838;12.094;2022-08-11T13:34:15;3.80;;;2.77;;
18286;SDS011;9269;50.838;12.094;2022-08-11T13:36:46;3.47;;;3.13;;
18286;SDS011;9269;50.838;12.094;2022-08-11T13:39:18;3.43;;;3.13;;
18286;SDS011;9269;50.838;12.094;2022-08-11T13:41:50;2.90;;;2.60;;
18286;SDS011;9269;50.838;12.094;2022-08-11T13:44:24;4.20;;;2.87;;
18286;SDS011;9269;50.838;12.094;2022-08-11T13:46:55;3.37;;;2.90;;
18286;SDS011;9269;50.838;12.094;2022-08-11T13:49:27;4.07;;;3.23;;
18286;SDS011;9269;50.838;12.094;2022-08-11T13:51:57;5.37;;;2.93;;
18286;SDS011;9269;50.838;12.094;2022-08-11T13:54:27;3.07;;;2.80;;
18286;SDS011;9269;50.838;12.094;2022-08-11T13:56:59;3.10;;;2.80;;
18286;SDS011;9269;50.838;12.094;2022-08-11T13:59:36;4.53;;;2.77;;
18286;SDS011;9269;50.838;12.094;2022-08-11T14:02:20;4.03;;;2.73;;
18286;SDS011;9269;50.838;12.094;2022-08-11T14:04:56;3.23;;;2.80;;
18286;SDS011;9269;50.838;12.094;2022-08-11T14:07:30;4.13;;;3.00;;
18286;SDS011;9269;50.838;12.094;2022-08-11T14:10:02;4.83;;;2.97;;
18286;SDS011;9269;50.838;12.094;2022-08-11T14:12:33;3.70;;;2.80;;
18286;SDS011;9269;50.838;12.094;2022-08-11T14:15:23;3.50;;;2.57;;
18286;SDS011;9269;50.838;12.094;2022-08-11T14:17:55;4.60;;;2.83;;
18286;SDS011;9269;50.838;12.094;2022-08-11T14:20:30;4.70;;;3.33;;
18286;SDS011;9269;50.838;12.094;2022-08-11T14:23:14;3.70;;;2.53;;
18286;SDS011;9269;50.838;12.094;2022-08-11T14:25:44;4.27;;;2.87;;
18286;SDS011;9269;50.838;12.094;2022-08-11T14:28:28;3.93;;;3.17;;
18286;SDS011;9269;50.838;12.094;2022-08-11T14:31:11;4.23;;;2.90;;
18286;SDS011;9269;50.838;12.094;2022-08-11T14:33:41;2.97;;;2.67;;
18286;SDS011;9269;50.838;12.094;2022-08-11T14:36:29;3.10;;;2.80;;
18286;SDS011;9269;50.838;12.094;2022-08-11T14:39:00;2.77;;;2.57;;
18286;SDS011;9269;50.838;12.094;2022-08-11T14:41:31;4.50;;;2.77;;
18286;SDS011;9269;50.838;12.094;2022-08-11T14:44:37;3.80;;;2.80;;
18286;SDS011;9269;50.838;12.094;2022-08-11T14:47:26;3.10;;;2.90;;
18286;SDS011;9269;50.838;12.094;2022-08-11T14:49:56;3.33;;;2.57;;
18286;SDS011;9269;50.838;12.094;2022-08-11T14:52:39;4.83;;;3.40;;
18286;SDS011;9269;50.838;12.094;2022-08-11T14:55:12;4.17;;;3.03;;
18286;SDS011;9269;50.838;12.094;2022-08-11T14:57:59;6.10;;;3.07;;
18286;SDS011;9269;50.838;12.094;2022-08-11T15:00:29;3.23;;;2.90;;
18286;SDS011;9269;50.838;12.094;2022-08-11T15:03:00;4.50;;;2.97;;
18286;SDS011;9269;50.838;12.094;2022-08-11T15:05:41;3.90;;;3.20;;
18286;SDS011;9269;50.838;12.094;2022-08-11T15:08:25;6.13;;;3.03;;
18286;SDS011;9269;50.838;12.094;2022-08-11T15:11:14;4.20;;;3.20;;
18286;SDS011;9269;50.838;12.094;2022-08-11T15:14:02;4.20;;;2.70;;
18286;SDS011;9269;50.838;12.094;2022-08-11T15:16:34;3.80;;;3.13;;
18286;SDS011;9269;50.838;12.094;2022-08-11T15:19:22;3.53;;;3.03;;
18286;SDS011;9269;50.838;12.094;2022-08-11T15:22:07;3.20;;;2.90;;
18286;SDS011;9269;50.838;12.094;2022-08-11T15:24:56;3.57;;;3.10;;
18286;SDS011;9269;50.838;12.094;2022-08-11T15:27:25;3.30;;;3.10;;
18286;SDS011;9269;50.838;12.094;2022-08-11T15:30:11;4.87;;;3.17;;
18286;SDS011;9269;50.838;12.094;2022-08-11T15:33:01;3.93;;;3.00;;
18286;SDS011;9269;50.838;12.094;2022-08-11T15:35:51;3.30;;;3.00;;
18286;SDS011;9269;50.838;12.094;2022-08-11T15:38:40;5.13;;;3.03;;
18286;SDS011;9269;50.838;12.094;2022-08-11T15:41:12;3.43;;;2.90;;
18286;SDS011;9269;50.838;12.094;2022-08-11T15:44:04;3.33;;;2.90;;
18286;SDS011;9269;50.838;12.094;2022-08-11T15:47:13;2.90;;;2.70;;
18286;SDS011;9269;50.838;12.094;2022-08-11T15:49:45;2.87;;;2.67;;
18286;SDS011;9269;50.838;12.094;2022-08-11T15:52:40;2.90;;;2.70;;
18286;SDS011;9269;50.838;12.094;2022-08-11T15:55:13;3.50;;;2.90;;
18286;SDS011;9269;50.838;12.094;2022-08-11T15:57:45;5.43;;;2.93;;
18286;SDS011;9269;50.838;12.094;2022-08-11T16:00:34;4.13;;;2.67;;
18286;SDS011;9269;50.838;12.094;2022-08-11T16:03:31;6.13;;;3.00;;
18286;SDS011;9269;50.838;12.094;2022-08-11T16:06:34;3.57;;;2.80;;
18286;SDS011;9269;50.838;12.094;2022-08-11T16:09:19;3.07;;;2.60;;
18286;SDS011;9269;50.838;12.094;2022-08-11T16:11:53;7.27;;;3.00;;
18286;SDS011;9269;50.838;12.094;2022-08-11T16:14:23;3.83;;;2.67;;
18286;SDS011;9269;50.838;12.094;2022-08-11T16:17:12;5.27;;;3.07;;
18286;SDS011;9269;50.838;12.094;2022-08-11T16:19:43;2.87;;;2.67;;
18286;SDS011;9269;50.838;12.094;2022-08-11T16:22:15;3.70;;;2.90;;
18286;SDS011;9269;50.838;12.094;2022-08-11T16:24:55;2.80;;;2.53;;
18286;SDS011;9269;50.838;12.094;2022-08-11T16:27:45;4.43;;;2.77;;
18286;SDS011;9269;50.838;12.094;2022-08-11T16:30:16;6.57;;;2.60;;
18286;SDS011;9269;50.838;12.094;2022-08-11T16:32:45;3.40;;;2.80;;
18286;SDS011;9269;50.838;12.094;2022-08-11T16:35:19;2.90;;;2.57;;
18286;SDS011;9269;50.838;12.094;2022-08-11T16:38:08;5.27;;;2.77;;
18286;SDS011;9269;50.838;12.094;2022-08-11T16:40:57;6.03;;;2.40;;
18286;SDS011;9269;50.838;12.094;2022-08-11T16:43:28;5.47;;;2.60;;
18286;SDS011;9269;50.838;12.094;2022-08-11T16:46:16;3.37;;;2.70;;
18286;SDS011;9269;50.838;12.094;2022-08-11T16:49:05;3.63;;;2.40;;
18286;SDS011;9269;50.838;12.094;2022-08-11T16:51:37;3.17;;;2.83;;
18286;SDS011;9269;50.838;12.094;2022-08-11T16:54:05;3.53;;;2.83;;
18286;SDS011;9269;50.838;12.094;2022-08-11T16:56:36;3.13;;;2.37;;
18286;SDS011;9269;50.838;12.094;2022-08-11T16:59:09;4.43;;;2.50;;
18286;SDS011;9269;50.838;12.094;2022-08-11T17:01:46;5.67;;;2.67;;
18286;SDS011;9269;50.838;12.094;2022-08-11T17:04:23;4.03;;;2.60;;
18286;SDS011;9269;50.838;12.094;2022-08-11T17:07:15;5.80;;;2.63;;
18286;SDS011;9269;50.838;12.094;2022-08-11T17:10:16;4.53;;;2.50;;
18286;SDS011;9269;50.838;12.094;2022-08-11T17:13:24;2.87;;;2.30;;